Time;durP1;ratioP1;P1;durP2;ratioP2;P2;SDS_P1;SDS_P2;PMS_P1;PMS_P2;Temp;Humidity;BMP_temperature;BMP_pressure;BME280_temperature;BME280_humidity;BME280_pressure;Samples;Min_cycle;Max_cycle;Signal;HPM_P1;HPM_P2
2022/06/24 00:00:17;;;;;;;1.00;0.90;;;;;;;21.77;100.00;95125.16;5132920;27;20510;-70
2022/06/24 00:02:48;;;;;;;0.60;0.53;;;;;;;21.37;100.00;95092.84;5132725;27;21049;-69
2022/06/24 00:05:17;;;;;;;0.50;0.40;;;;;;;21.75;100.00;95138.19;5132617;27;20515;-69
2022/06/24 00:07:46;;;;;;;1.13;0.60;;;;;;;21.71;100.00;95128.41;5133119;27;20446;-69
2022/06/24 00:10:17;;;;;;;0.50;0.40;;;;;;;21.73;100.00;95126.94;5133037;27;20446;-69
2022/06/24 00:12:47;;;;;;;0.40;0.20;;;;;;;21.65;100.00;95111.72;5133027;28;20469;-69
2022/06/24 00:15:16;;;;;;;0.60;0.47;;;;;;;21.55;100.00;95084.44;5132692;28;20422;-69
2022/06/24 00:17:44;;;;;;;4.87;1.07;;;;;;;21.73;100.00;95120.78;5133000;28;20502;-70
2022/06/24 00:20:18;;;;;;;0.60;0.50;;;;;;;21.78;100.00;95123.25;5132734;28;20937;-69
2022/06/24 00:22:48;;;;;;;0.50;0.40;;;;;;;21.71;100.00;95120.31;5133456;28;20458;-69
2022/06/24 00:25:20;;;;;;;0.50;0.40;;;;;;;21.78;100.00;95112.44;5136158;28;20414;-69
2022/06/24 00:28:03;;;;;;;0.60;0.40;;;;;;;21.81;100.00;95115.22;5133101;28;20503;-69
2022/06/24 00:30:37;;;;;;;0.50;0.30;;;;;;;20.88;100.00;94986.28;5132498;28;20475;-69
2022/06/24 00:33:13;;;;;;;0.60;0.40;;;;;;;21.64;100.00;95093.97;5132739;28;20442;-69
2022/06/24 00:35:44;;;;;;;0.50;0.47;;;;;;;21.62;100.00;95112.41;5132725;28;20422;-68
2022/06/24 00:38:25;;;;;;;0.63;0.60;;;;;;;21.63;100.00;95129.38;5132423;28;20509;-68
2022/06/24 00:40:56;;;;;;;0.40;0.30;;;;;;;21.11;100.00;95135.56;5132036;28;20458;-69
2022/06/24 00:43:31;;;;;;;1.27;0.87;;;;;;;21.20;100.00;95120.06;5132562;28;20539;-69
2022/06/24 00:46:09;;;;;;;1.37;1.13;;;;;;;20.68;100.00;95076.91;5132185;28;20560;-69
2022/06/24 00:48:40;;;;;;;0.50;0.30;;;;;;;21.40;100.00;95123.72;5132718;28;20418;-69
2022/06/24 00:51:09;;;;;;;0.80;0.80;;;;;;;21.44;100.00;95125.38;5132665;28;20446;-68
2022/06/24 00:53:42;;;;;;;0.40;0.30;;;;;;;21.38;100.00;95109.78;5132686;28;20518;-69
2022/06/24 00:56:14;;;;;;;0.57;0.40;;;;;;;21.41;100.00;95115.28;5132585;27;20506;-68
2022/06/24 00:58:51;;;;;;;0.50;0.40;;;;;;;21.03;100.00;95082.56;5132222;28;20506;-69
2022/06/24 01:01:28;;;;;;;0.63;0.63;;;;;;;21.29;100.00;95091.06;5132491;28;20838;-68
2022/06/24 01:03:57;;;;;;;0.73;0.73;;;;;;;21.38;100.00;95097.09;5132201;27;20458;-68
2022/06/24 01:06:26;;;;;;;0.50;0.40;;;;;;;21.42;100.00;95114.16;5132146;28;20869;-68
2022/06/24 01:08:55;;;;;;;0.60;0.30;;;;;;;21.08;100.00;95066.19;5132114;27;20514;-69
2022/06/24 01:11:27;;;;;;;0.67;0.57;;;;;;;21.46;100.00;95122.34;5132437;28;20443;-69
2022/06/24 01:13:56;;;;;;;0.40;0.30;;;;;;;21.51;100.00;95120.19;5132290;28;20502;-68
2022/06/24 01:16:25;;;;;;;0.40;0.27;;;;;;;21.57;100.00;95114.56;5132380;27;20501;-69
2022/06/24 01:18:55;;;;;;;0.40;0.30;;;;;;;21.49;100.00;95110.88;5135762;27;20790;-68
2022/06/24 01:21:37;;;;;;;0.50;0.50;;;;;;;20.92;100.00;95122.66;5136131;27;20439;-69
2022/06/24 01:24:07;;;;;;;0.80;0.50;;;;;;;21.10;100.00;95106.28;5135989;27;20886;-68
2022/06/24 01:26:36;;;;;;;0.50;0.50;;;;;;;21.19;100.00;95115.00;5136055;27;20497;-68
2022/06/24 01:29:10;;;;;;;0.50;0.40;;;;;;;20.35;100.00;94987.41;5135211;27;20423;-69
2022/06/24 01:31:40;;;;;;;0.47;0.37;;;;;;;20.96;100.00;95065.41;5135729;27;20414;-68
2022/06/24 01:34:10;;;;;;;0.47;0.30;;;;;;;21.33;100.00;95127.00;5135866;27;20857;-69
2022/06/24 01:36:40;;;;;;;1.10;1.03;;;;;;;21.27;100.00;95128.38;5135867;27;20453;-69
2022/06/24 01:39:09;;;;;;;1.80;1.70;;;;;;;20.94;100.00;95119.63;5135507;27;20475;-69
2022/06/24 01:41:37;;;;;;;0.40;0.30;;;;;;;20.39;100.00;95011.75;5135411;27;20494;-69
2022/06/24 01:44:06;;;;;;;0.40;0.30;;;;;;;20.93;100.00;95072.25;5135310;27;20517;-69
2022/06/24 01:46:35;;;;;;;0.70;0.53;;;;;;;21.30;100.00;95129.59;5135480;27;20461;-69
2022/06/24 01:49:04;;;;;;;3.03;0.50;;;;;;;21.26;100.00;95121.41;5135274;27;20509;-69
2022/06/24 01:51:34;;;;;;;0.40;0.30;;;;;;;21.12;100.00;95106.72;5135344;27;20426;-69
2022/06/24 01:54:04;;;;;;;0.50;0.47;;;;;;;21.31;100.00;95131.94;5135540;27;20450;-69
2022/06/24 01:56:32;;;;;;;0.50;0.30;;;;;;;20.87;100.00;95066.31;5135272;27;20934;-69
2022/06/24 01:59:01;;;;;;;0.50;0.33;;;;;;;21.12;100.00;95137.16;5135063;27;20473;-69
2022/06/24 02:01:29;;;;;;;0.90;0.63;;;;;;;20.98;100.00;95123.22;5135027;27;20857;-69
2022/06/24 02:03:58;;;;;;;0.43;0.37;;;;;;;20.86;100.00;95107.88;5135300;27;20541;-69
2022/06/24 02:06:26;;;;;;;0.70;0.30;;;;;;;21.24;100.00;95131.75;5135351;27;20451;-69
2022/06/24 02:08:56;;;;;;;0.50;0.30;;;;;;;21.31;100.00;95125.75;5134924;27;20426;-69
2022/06/24 02:14:15;;;;;;;1.70;0.30;;;;;;;21.12;100.00;95129.06;5135048;27;20444;-68
2022/06/24 02:16:44;;;;;;;0.50;0.33;;;;;;;21.05;100.00;95126.13;5134855;27;20502;-69
2022/06/24 02:19:13;;;;;;;2.93;1.03;;;;;;;19.68;100.00;94974.50;5134963;27;20450;-69
2022/06/24 02:21:41;;;;;;;0.70;0.63;;;;;;;20.79;100.00;95102.25;5134736;27;20518;-69
2022/06/24 02:24:11;;;;;;;0.67;0.60;;;;;;;21.11;100.00;95124.00;5134077;27;20490;-69
2022/06/24 02:26:41;;;;;;;0.60;0.50;;;;;;;21.07;100.00;95131.22;5134488;27;20466;-69
2022/06/24 02:29:13;;;;;;;0.53;0.40;;;;;;;21.04;100.00;95137.25;5133121;27;20491;-69
2022/06/24 02:31:41;;;;;;;0.50;0.30;;;;;;;21.15;100.00;95133.00;5134375;27;20474;-69
2022/06/24 02:34:10;;;;;;;1.17;0.60;;;;;;;20.92;100.00;95138.81;5135026;27;20497;-68
2022/06/24 02:36:38;;;;;;;0.60;0.60;;;;;;;20.84;100.00;95147.84;5134845;27;20471;-69
2022/06/24 02:39:07;;;;;;;0.57;0.40;;;;;;;20.71;100.00;95099.69;5134848;27;20850;-68
2022/06/24 02:41:36;;;;;;;0.57;0.57;;;;;;;20.03;100.00;94989.09;5134136;27;20863;-68
2022/06/24 02:44:06;;;;;;;0.60;0.40;;;;;;;21.02;100.00;95136.81;5133806;27;20512;-69
2022/06/24 02:46:34;;;;;;;0.50;0.40;;;;;;;21.06;100.00;95129.63;5133978;27;20898;-68
2022/06/24 02:49:03;;;;;;;0.50;0.30;;;;;;;21.23;100.00;95148.22;5134135;27;20427;-68
2022/06/24 02:51:31;;;;;;;0.53;0.30;;;;;;;21.17;100.00;95138.84;5133999;27;20874;-68
2022/06/24 02:54:00;;;;;;;0.50;0.50;;;;;;;21.34;100.00;95158.22;5134310;27;20900;-69
2022/06/24 02:56:28;;;;;;;0.60;0.60;;;;;;;21.21;100.00;95139.72;5134229;27;20465;-68
2022/06/24 02:58:56;;;;;;;0.50;0.40;;;;;;;21.35;100.00;95157.06;5133892;27;20985;-68
2022/06/24 03:01:26;;;;;;;0.40;0.30;;;;;;;21.23;100.00;95167.91;5134021;27;20501;-70
2022/06/24 03:03:55;;;;;;;0.50;0.40;;;;;;;21.42;100.00;95178.88;5133680;27;20462;-69
2022/06/24 03:06:23;;;;;;;2.00;0.30;;;;;;;21.33;100.00;95159.34;5133625;27;20459;-70
2022/06/24 03:08:52;;;;;;;0.50;0.50;;;;;;;21.44;100.00;95165.84;5133669;27;20467;-69
2022/06/24 03:11:20;;;;;;;0.50;0.30;;;;;;;20.88;100.00;95147.91;5133502;27;20415;-67
2022/06/24 03:13:48;;;;;;;1.53;0.43;;;;;;;21.21;100.00;95161.28;5133475;27;20907;-67
2022/06/24 03:16:17;;;;;;;0.40;0.30;;;;;;;21.31;100.00;95172.38;5133760;27;20501;-68
2022/06/24 03:18:47;;;;;;;0.60;0.43;;;;;;;21.37;100.00;95176.41;5133757;27;20422;-68
2022/06/24 03:21:15;;;;;;;0.60;0.40;;;;;;;20.87;100.00;95147.13;5132782;27;20414;-68
2022/06/24 03:23:44;;;;;;;0.63;0.63;;;;;;;20.16;100.00;95176.31;5133231;27;20454;-67
2022/06/24 03:26:12;;;;;;;1.00;0.50;;;;;;;19.14;100.00;95021.34;5133231;27;20918;-67
2022/06/24 03:28:40;;;;;;;0.70;0.30;;;;;;;20.69;100.00;95177.34;5133012;27;20450;-67
2022/06/24 03:31:13;;;;;;;0.67;0.53;;;;;;;20.96;100.00;95175.88;5133284;27;20419;-66
2022/06/24 03:33:42;;;;;;;0.60;0.60;;;;;;;21.21;100.00;95164.75;5132977;27;20788;-67
2022/06/24 03:36:13;;;;;;;0.60;0.40;;;;;;;21.42;100.00;95168.09;5132810;27;20447;-69
2022/06/24 03:38:41;;;;;;;0.70;0.70;;;;;;;21.30;100.00;95164.63;5133238;27;20473;-68
2022/06/24 03:41:13;;;;;;;0.90;0.80;;;;;;;21.39;100.00;95171.47;5131961;27;20471;-69
2022/06/24 03:43:42;;;;;;;0.70;0.60;;;;;;;21.37;100.00;95175.63;5133416;27;20446;-70
2022/06/24 03:46:10;;;;;;;3.70;0.50;;;;;;;21.35;100.00;95167.09;5132999;27;20463;-70
2022/06/24 03:48:39;;;;;;;0.77;0.70;;;;;;;21.42;100.00;95180.78;5133372;27;20790;-73
2022/06/24 03:51:07;;;;;;;3.90;0.90;;;;;;;21.60;100.00;95178.59;5132306;27;20430;-77
2022/06/24 03:53:38;;;;;;;0.60;0.50;;;;;;;21.39;100.00;95178.75;5133461;27;20795;-77
2022/06/24 03:56:09;;;;;;;0.77;0.60;;;;;;;21.71;100.00;95183.16;5133171;27;20450;-79
2022/06/24 03:58:39;;;;;;;0.77;0.77;;;;;;;21.78;100.00;95163.72;5133914;27;20422;-78
2022/06/24 04:01:07;;;;;;;0.57;0.30;;;;;;;22.20;100.00;95183.78;5133107;27;20509;-77
2022/06/24 04:03:36;;;;;;;0.50;0.40;;;;;;;22.09;100.00;95182.69;5132892;27;20458;-76
2022/06/24 04:06:04;;;;;;;0.73;0.40;;;;;;;21.27;100.00;95192.28;5133125;27;20466;-76
2022/06/24 04:08:33;;;;;;;1.03;0.80;;;;;;;21.35;100.00;95184.03;5132775;27;21075;-76
2022/06/24 04:11:10;;;;;;;2.40;1.17;;;;;;;21.77;100.00;95186.41;5132853;27;20506;-77
2022/06/24 04:13:39;;;;;;;0.50;0.40;;;;;;;21.58;100.00;95180.88;5132768;27;20505;-76
2022/06/24 04:16:07;;;;;;;0.50;0.30;;;;;;;21.21;100.00;95180.94;5133172;27;20489;-76
2022/06/24 04:18:36;;;;;;;1.33;1.17;;;;;;;20.89;100.00;95184.53;5133073;28;20414;-77
2022/06/24 04:21:11;;;;;;;0.60;0.43;;;;;;;20.80;100.00;95184.63;5133178;28;20410;-77
2022/06/24 04:23:40;;;;;;;0.87;0.77;;;;;;;21.17;100.00;95179.25;5132559;28;20446;-77
2022/06/24 04:26:10;;;;;;;0.60;0.40;;;;;;;21.07;100.00;95126.63;5132123;28;20541;-77
2022/06/24 04:28:39;;;;;;;0.70;0.63;;;;;;;21.84;100.00;95179.31;5133015;28;20439;-76
2022/06/24 04:31:08;;;;;;;0.57;0.50;;;;;;;21.63;100.00;95180.63;5132560;27;20429;-74
2022/06/24 04:33:36;;;;;;;6.13;0.57;;;;;;;21.39;100.00;95190.34;5132386;28;20906;-74
2022/06/24 04:36:10;;;;;;;1.27;0.70;;;;;;;21.32;100.00;95200.91;5132965;28;20843;-74
2022/06/24 04:38:38;;;;;;;0.60;0.53;;;;;;;21.69;100.00;95195.44;5132775;27;20501;-74
2022/06/24 04:41:16;;;;;;;0.57;0.53;;;;;;;21.06;100.00;95199.69;5133011;28;20495;-74
2022/06/24 04:43:45;;;;;;;1.00;0.90;;;;;;;21.26;100.00;95207.66;5132380;28;20410;-74
2022/06/24 04:46:14;;;;;;;0.50;0.47;;;;;;;21.59;100.00;95201.28;5132877;28;20929;-75
2022/06/24 04:48:42;;;;;;;2.10;0.40;;;;;;;21.71;100.00;95202.03;5140673;27;20423;-76
2022/06/24 04:51:12;;;;;;;3.20;1.40;;;;;;;21.12;100.00;95203.75;5139016;27;20426;-76
2022/06/24 04:53:41;;;;;;;3.70;0.93;;;;;;;20.92;100.00;95197.34;5137713;27;20928;-75
2022/06/24 04:56:09;;;;;;;0.87;0.87;;;;;;;20.82;100.00;95198.53;5136705;27;20510;-75
2022/06/24 04:58:39;;;;;;;0.63;0.57;;;;;;;21.01;100.00;95195.31;5137056;27;20446;-76
2022/06/24 05:01:08;;;;;;;1.23;1.23;;;;;;;21.11;100.00;95200.25;5136319;27;20454;-75
2022/06/24 05:03:36;;;;;;;1.70;0.97;;;;;;;21.25;100.00;95189.13;5136055;27;20454;-75
2022/06/24 05:06:04;;;;;;;0.60;0.40;;;;;;;20.99;100.00;95146.34;5136361;27;20458;-75
2022/06/24 05:08:33;;;;;;;1.00;0.90;;;;;;;21.01;100.00;95199.91;5136466;27;20470;-75
2022/06/24 05:11:01;;;;;;;0.70;0.70;;;;;;;21.01;100.00;95207.97;5136125;27;20505;-74
2022/06/24 05:13:30;;;;;;;1.33;1.23;;;;;;;20.82;100.00;95201.25;5136239;27;20509;-74
2022/06/24 05:16:00;;;;;;;0.50;0.40;;;;;;;21.39;100.00;95203.03;5136020;27;20476;-74
2022/06/24 05:18:48;;;;;;;2.30;1.90;;;;;;;21.30;100.00;95203.16;5136149;27;20781;-75
2022/06/24 05:21:17;;;;;;;0.80;0.80;;;;;;;21.01;100.00;95203.38;5142348;27;20438;-76
2022/06/24 05:23:50;;;;;;;1.20;1.10;;;;;;;21.29;100.00;95222.38;5153725;27;20418;-76
2022/06/24 05:26:21;;;;;;;0.70;0.50;;;;;;;21.39;100.00;95214.59;5136625;27;20458;-76
2022/06/24 05:28:49;;;;;;;0.57;0.57;;;;;;;21.72;100.00;95214.41;5136134;27;20456;-76
2022/06/24 05:31:19;;;;;;;0.70;0.60;;;;;;;21.99;100.00;95213.69;5135790;27;20501;-76
2022/06/24 05:33:48;;;;;;;0.70;0.70;;;;;;;22.00;100.00;95198.28;5136038;27;20798;-74
2022/06/24 05:36:16;;;;;;;0.90;0.70;;;;;;;21.98;100.00;95204.03;5135832;27;20475;-74
2022/06/24 05:38:46;;;;;;;0.50;0.40;;;;;;;21.82;100.00;95210.44;5135810;27;20476;-74
2022/06/24 05:41:14;;;;;;;0.57;0.57;;;;;;;21.36;100.00;95212.59;5135523;27;20442;-75
2022/06/24 05:43:45;;;;;;;0.57;0.47;;;;;;;21.43;100.00;95206.59;5135627;27;20442;-70
2022/06/24 05:46:14;;;;;;;0.40;0.30;;;;;;;21.87;100.00;95208.34;5135406;27;20901;-71
2022/06/24 05:48:44;;;;;;;0.50;0.50;;;;;;;22.00;100.00;95215.25;5135266;27;20415;-71
2022/06/24 05:51:15;;;;;;;0.50;0.40;;;;;;;21.99;100.00;95204.78;5134982;27;20422;-69
2022/06/24 05:56:32;;;;;;;0.40;0.30;;;;;;;22.37;100.00;95223.97;5135489;27;20430;-69
2022/06/24 05:59:01;;;;;;;0.53;0.50;;;;;;;22.64;100.00;95223.16;5134965;27;20415;-70
2022/06/24 06:01:29;;;;;;;0.73;0.57;;;;;;;22.48;100.00;95224.25;5135325;27;20483;-70
2022/06/24 06:03:59;;;;;;;0.53;0.40;;;;;;;22.33;100.00;95204.19;5133872;27;20895;-70
2022/06/24 06:06:27;;;;;;;0.63;0.63;;;;;;;22.51;100.00;95232.44;5134548;27;20549;-69
2022/06/24 06:08:57;;;;;;;0.70;0.60;;;;;;;22.63;100.00;95237.00;5134910;27;20457;-69
2022/06/24 06:11:26;;;;;;;0.57;0.57;;;;;;;22.17;100.00;95235.75;5135251;27;20545;-69
2022/06/24 06:13:56;;;;;;;1.00;0.60;;;;;;;21.94;100.00;95188.84;5135149;27;20453;-69
2022/06/24 06:16:26;;;;;;;1.03;1.03;;;;;;;22.53;100.00;95241.00;5134939;27;20415;-69
2022/06/24 06:18:55;;;;;;;0.83;0.83;;;;;;;22.03;100.00;95240.78;5135071;27;20423;-70
2022/06/24 06:21:25;;;;;;;1.33;0.80;;;;;;;21.64;100.00;95238.81;5134743;27;20994;-70
2022/06/24 06:23:53;;;;;;;6.10;1.37;;;;;;;21.51;100.00;95228.06;5134619;27;20422;-70
2022/06/24 06:26:22;;;;;;;1.00;1.00;;;;;;;21.34;100.00;95235.63;5134613;27;20459;-67
2022/06/24 06:28:50;;;;;;;0.50;0.40;;;;;;;21.25;100.00;95230.34;5134600;27;20449;-69
2022/06/24 06:31:19;;;;;;;1.33;1.23;;;;;;;21.21;100.00;95232.16;5134430;27;20461;-68
2022/06/24 06:33:47;;;;;;;0.80;0.70;;;;;;;21.50;100.00;95239.97;5134650;27;20566;-69
2022/06/24 06:36:16;;;;;;;0.50;0.47;;;;;;;21.51;100.00;95241.56;5134411;27;20502;-70
2022/06/24 06:38:46;;;;;;;1.60;0.93;;;;;;;22.01;100.00;95243.81;5134360;27;20509;-69
2022/06/24 06:41:15;;;;;;;1.47;0.40;;;;;;;22.11;100.00;95237.16;5134258;27;20414;-68
2022/06/24 06:43:43;;;;;;;3.43;0.60;;;;;;;22.21;100.00;95257.47;5134044;27;20514;-68
2022/06/24 06:46:12;;;;;;;0.80;0.70;;;;;;;22.42;100.00;95266.13;5134522;27;20458;-67
2022/06/24 06:48:41;;;;;;;1.33;1.23;;;;;;;22.51;100.00;95259.47;5134086;27;20414;-69
2022/06/24 06:51:09;;;;;;;0.50;0.40;;;;;;;22.99;100.00;95261.09;5134006;27;20415;-69
2022/06/24 06:53:38;;;;;;;0.40;0.30;;;;;;;23.34;100.00;95263.88;5134037;27;20891;-69
2022/06/24 06:56:08;;;;;;;1.33;1.33;;;;;;;23.17;100.00;95277.75;5134064;27;20407;-69
2022/06/24 06:58:36;;;;;;;0.63;0.60;;;;;;;23.31;100.00;95280.78;5134374;27;20567;-62
2022/06/24 07:01:05;;;;;;;0.87;0.87;;;;;;;23.65;100.00;95271.97;5133710;27;20501;-67
2022/06/24 07:03:33;;;;;;;1.27;0.93;;;;;;;23.69;100.00;95277.44;5136413;27;20440;-68
2022/06/24 07:06:02;;;;;;;0.63;0.60;;;;;;;24.00;100.00;95264.59;5139016;27;20458;-64
2022/06/24 07:08:30;;;;;;;0.40;0.40;;;;;;;24.05;100.00;95265.47;5134576;27;20483;-64
2022/06/24 07:10:59;;;;;;;0.60;0.60;;;;;;;23.80;100.00;95262.22;5134098;27;20467;-67
2022/06/24 07:13:28;;;;;;;0.50;0.43;;;;;;;23.80;100.00;95252.19;5134154;27;20457;-65
2022/06/24 07:15:58;;;;;;;1.27;0.93;;;;;;;24.40;100.00;95252.66;5133812;27;20427;-65
2022/06/24 07:18:26;;;;;;;0.60;0.47;;;;;;;24.89;100.00;95250.88;5133829;27;20419;-67
2022/06/24 07:20:55;;;;;;;1.03;1.03;;;;;;;25.25;99.46;95250.28;5133277;27;20423;-67
2022/06/24 07:23:23;;;;;;;4.17;0.57;;;;;;;25.16;100.00;95236.22;5133390;27;20509;-64
2022/06/24 07:25:52;;;;;;;0.40;0.30;;;;;;;25.24;96.88;95215.41;5133214;27;20419;-65
2022/06/24 07:28:20;;;;;;;1.43;1.37;;;;;;;25.41;98.58;95228.44;5133062;27;20426;-64
2022/06/24 07:30:50;;;;;;;0.80;0.67;;;;;;;25.76;99.33;95230.91;5133190;27;20443;-64
2022/06/24 07:33:18;;;;;;;0.90;0.90;;;;;;;25.98;93.51;95224.63;5133343;27;20506;-64
2022/06/24 07:35:47;;;;;;;4.90;1.40;;;;;;;25.80;94.95;95216.25;5133284;27;20483;-63
2022/06/24 07:38:19;;;;;;;2.40;0.50;;;;;;;26.68;77.14;95226.59;5133335;27;20422;-64
2022/06/24 07:40:48;;;;;;;0.47;0.43;;;;;;;27.20;83.57;95229.00;5133434;27;20414;-65
2022/06/24 07:43:17;;;;;;;0.60;0.53;;;;;;;27.46;78.13;95225.34;5133233;27;20487;-67
2022/06/24 07:45:45;;;;;;;0.40;0.30;;;;;;;28.36;71.81;95237.13;5132642;27;20518;-69
2022/06/24 07:48:15;;;;;;;4.30;0.80;;;;;;;27.83;71.94;95244.25;5133323;27;20490;-70
2022/06/24 07:50:43;;;;;;;0.60;0.50;;;;;;;27.65;77.90;95247.63;5133044;27;20440;-69
2022/06/24 07:53:12;;;;;;;2.10;0.60;;;;;;;26.84;82.72;95246.22;5132863;27;20426;-67
2022/06/24 07:58:26;;;;;;;3.10;0.73;;;;;;;27.12;80.25;95237.50;5132817;27;20499;-67
2022/06/24 08:00:54;;;;;;;0.50;0.40;;;;;;;27.74;74.56;95225.53;5132697;27;20517;-65
2022/06/24 08:03:24;;;;;;;0.57;0.57;;;;;;;28.57;69.50;95225.50;5132643;27;20419;-65
2022/06/24 08:05:53;;;;;;;3.80;0.90;;;;;;;28.23;62.97;95225.03;5132792;27;20415;-65
2022/06/24 08:08:21;;;;;;;2.47;0.50;;;;;;;29.15;62.14;95214.28;5133140;27;20515;-66
2022/06/24 08:10:50;;;;;;;0.50;0.40;;;;;;;29.83;58.54;95219.31;5132391;27;20830;-66
2022/06/24 08:13:18;;;;;;;0.53;0.50;;;;;;;29.93;52.73;95210.31;5132982;27;20461;-67
2022/06/24 08:15:46;;;;;;;0.50;0.50;;;;;;;29.69;52.08;95213.88;5132579;27;20446;-67
2022/06/24 08:18:17;;;;;;;0.50;0.50;;;;;;;29.17;51.96;95204.53;5132827;27;20421;-68
2022/06/24 08:20:46;;;;;;;0.50;0.47;;;;;;;29.74;51.35;95191.63;5132570;28;20419;-68
2022/06/24 08:23:15;;;;;;;0.40;0.40;;;;;;;30.55;48.71;95183.13;5132507;28;21047;-67
2022/06/24 08:25:43;;;;;;;0.40;0.30;;;;;;;30.72;43.53;95184.97;5132512;28;20426;-68
2022/06/24 08:28:12;;;;;;;0.60;0.53;;;;;;;30.81;42.00;95179.03;5135942;27;20529;-68
2022/06/24 08:30:40;;;;;;;0.53;0.53;;;;;;;31.09;47.35;95181.59;5136715;27;20513;-67
2022/06/24 08:33:08;;;;;;;1.13;1.13;;;;;;;30.96;47.26;95177.78;5136677;27;20442;-66
2022/06/24 08:35:37;;;;;;;3.13;0.63;;;;;;;31.05;48.15;95183.56;5136618;27;20454;-67
2022/06/24 08:38:07;;;;;;;1.33;0.60;;;;;;;30.10;44.78;95168.50;5136486;27;20418;-67
2022/06/24 08:40:36;;;;;;;1.23;0.90;;;;;;;30.62;48.24;95168.59;5136431;27;20941;-66
2022/06/24 08:43:11;;;;;;;0.70;0.60;;;;;;;30.66;44.92;95167.41;5136714;27;20508;-66
2022/06/24 08:45:40;;;;;;;0.40;0.40;;;;;;;31.38;44.84;95168.41;5136327;27;20532;-66
2022/06/24 08:48:09;;;;;;;0.63;0.47;;;;;;;30.90;48.85;95162.16;5136543;27;20486;-66
2022/06/24 08:50:38;;;;;;;0.30;0.23;;;;;;;31.39;46.33;95156.28;5136197;27;20485;-65
2022/06/24 08:53:11;;;;;;;1.83;1.00;;;;;;;30.03;42.08;95137.69;5136702;27;20478;-66
2022/06/24 08:55:40;;;;;;;0.40;0.40;;;;;;;30.40;39.82;95150.78;5136233;27;20517;-66
2022/06/24 08:58:10;;;;;;;0.60;0.50;;;;;;;31.05;39.73;95141.72;5136296;27;20468;-65
2022/06/24 09:00:40;;;;;;;0.60;0.60;;;;;;;30.66;41.36;95139.28;5136488;27;20473;-65
2022/06/24 09:03:08;;;;;;;3.80;1.07;;;;;;;30.79;48.67;95143.84;5135969;27;21160;-65
2022/06/24 09:05:37;;;;;;;0.57;0.50;;;;;;;31.46;49.37;95139.81;5136416;27;20485;-64
2022/06/24 09:08:09;;;;;;;1.00;1.00;;;;;;;31.00;46.94;95145.69;5135832;27;20960;-64
2022/06/24 09:10:39;;;;;;;5.53;0.90;;;;;;;30.44;47.15;95138.63;5135947;27;20482;-65
2022/06/24 09:13:21;;;;;;;0.63;0.63;;;;;;;29.94;47.53;95142.78;5135837;27;20862;-65
2022/06/24 09:15:53;;;;;;;0.40;0.30;;;;;;;31.05;42.46;95147.19;5135929;27;20433;-64
2022/06/24 09:18:22;;;;;;;0.70;0.50;;;;;;;31.56;42.45;95140.88;5136033;27;20418;-64
2022/06/24 09:20:51;;;;;;;2.83;0.50;;;;;;;31.40;39.54;95139.44;5135517;27;20460;-64
2022/06/24 09:23:21;;;;;;;1.07;0.30;;;;;;;31.25;39.95;95138.03;5135989;27;20448;-64
2022/06/24 09:25:51;;;;;;;0.40;0.37;;;;;;;31.86;39.19;95130.75;5136399;27;21050;-63
2022/06/24 09:28:23;;;;;;;0.40;0.30;;;;;;;31.17;39.59;95136.53;5135404;27;20517;-63
2022/06/24 09:30:59;;;;;;;0.73;0.60;;;;;;;31.12;39.35;95128.75;5135766;27;20850;-64
2022/06/24 09:33:28;;;;;;;2.50;0.70;;;;;;;31.18;39.15;95129.09;5135390;27;20434;-63
2022/06/24 09:36:01;;;;;;;0.57;0.57;;;;;;;31.06;38.89;95130.38;5135399;27;20498;-59
2022/06/24 09:38:32;;;;;;;0.40;0.30;;;;;;;31.94;38.08;95132.22;5135390;27;20994;-60
2022/06/24 09:41:01;;;;;;;0.50;0.37;;;;;;;32.34;38.65;95125.03;5135233;27;20799;-60
2022/06/24 09:43:31;;;;;;;0.50;0.33;;;;;;;32.09;37.97;95129.31;5135332;27;20418;-60
2022/06/24 09:46:01;;;;;;;1.30;0.70;;;;;;;31.99;37.75;95129.03;5134932;27;20473;-60
2022/06/24 09:48:32;;;;;;;0.40;0.40;;;;;;;31.83;36.71;95136.25;5135091;27;20466;-60
2022/06/24 09:51:02;;;;;;;0.40;0.40;;;;;;;32.09;36.75;95130.09;5135403;27;20416;-59
2022/06/24 09:53:35;;;;;;;0.50;0.30;;;;;;;32.44;34.82;95129.59;5135220;27;20429;-59
2022/06/24 09:56:07;;;;;;;0.50;0.40;;;;;;;31.87;35.83;95134.25;5134381;27;20541;-60
2022/06/24 09:58:36;;;;;;;0.40;0.30;;;;;;;32.02;35.02;95130.19;5135181;27;20419;-60
2022/06/24 10:01:04;;;;;;;12.73;0.63;;;;;;;32.59;34.24;95130.19;5135216;27;20516;-60
2022/06/24 10:03:34;;;;;;;0.40;0.30;;;;;;;33.35;35.48;95115.63;5134042;27;20488;-60
2022/06/24 10:06:05;;;;;;;0.40;0.30;;;;;;;33.30;34.32;95112.56;5134398;27;20477;-60
2022/06/24 10:08:35;;;;;;;0.57;0.50;;;;;;;33.13;32.77;95108.97;5134675;27;20547;-60
2022/06/24 10:11:27;;;;;;;0.50;0.40;;;;;;;34.06;32.99;95106.03;5134497;27;20424;-60
2022/06/24 10:13:57;;;;;;;0.43;0.30;;;;;;;33.14;32.61;95092.06;5134875;27;20421;-60
2022/06/24 10:16:26;;;;;;;0.60;0.37;;;;;;;33.86;33.74;95098.56;5134529;27;20432;-60
2022/06/24 10:18:56;;;;;;;0.40;0.40;;;;;;;33.46;32.39;95093.44;5134469;27;20893;-60
2022/06/24 10:21:25;;;;;;;1.80;0.50;;;;;;;32.53;33.98;95096.19;5134518;27;20514;-61
2022/06/24 10:23:56;;;;;;;0.50;0.50;;;;;;;32.47;34.42;95095.06;5134422;27;20472;-60
2022/06/24 10:26:25;;;;;;;0.67;0.40;;;;;;;33.03;32.39;95098.91;5134456;27;20987;-60
2022/06/24 10:29:22;;;;;;;0.40;0.30;;;;;;;32.42;33.92;95098.28;5134334;27;20509;-60
2022/06/24 10:31:55;;;;;;;0.40;0.37;;;;;;;33.47;32.89;95087.50;5134101;27;20529;-60
2022/06/24 10:34:43;;;;;;;0.47;0.30;;;;;;;34.13;31.44;95089.41;5134253;27;20417;-60
2022/06/24 10:37:31;;;;;;;0.80;0.40;;;;;;;33.61;32.57;95089.25;5134064;27;20992;-61
2022/06/24 10:40:02;;;;;;;0.40;0.30;;;;;;;32.72;31.70;95070.00;5134839;27;20455;-62
2022/06/24 10:42:33;;;;;;;0.30;0.30;;;;;;;32.49;31.57;95100.91;5134275;27;20465;-60
2022/06/24 10:45:08;;;;;;;0.70;0.40;;;;;;;33.22;31.51;95090.72;5133740;27;21050;-61
2022/06/24 10:47:41;;;;;;;1.27;0.47;;;;;;;32.79;30.70;95100.88;5133299;27;20485;-60
2022/06/24 10:50:13;;;;;;;0.30;0.30;;;;;;;33.11;30.33;95094.88;5133519;27;20432;-60
2022/06/24 10:52:55;;;;;;;0.60;0.60;;;;;;;33.72;31.30;95095.31;5133846;27;20422;-60
2022/06/24 10:55:38;;;;;;;0.43;0.40;;;;;;;34.07;30.52;95097.38;5133591;27;20458;-60
2022/06/24 10:58:10;;;;;;;0.40;0.40;;;;;;;34.18;30.19;95100.66;5134029;27;20827;-60
2022/06/24 11:00:56;;;;;;;0.30;0.23;;;;;;;34.38;31.17;95095.88;5133542;27;20428;-60
2022/06/24 11:03:34;;;;;;;0.60;0.40;;;;;;;33.88;30.01;95096.16;5133676;27;20455;-57
2022/06/24 11:06:02;;;;;;;0.47;0.30;;;;;;;33.74;30.96;95103.91;5133617;27;20517;-61
2022/06/24 11:08:31;;;;;;;0.40;0.30;;;;;;;34.13;31.12;95092.16;5133534;27;20978;-60
2022/06/24 11:11:01;;;;;;;0.87;0.87;;;;;;;34.17;30.61;95103.84;5133895;27;20802;-60
2022/06/24 11:13:29;;;;;;;0.50;0.30;;;;;;;33.77;30.45;95094.84;5133805;27;20513;-60
2022/06/24 11:16:00;;;;;;;0.47;0.40;;;;;;;32.62;30.81;94965.50;5133274;27;20456;-59
2022/06/24 11:18:31;;;;;;;0.40;0.30;;;;;;;33.25;31.73;95086.38;5133646;27;20518;-60
2022/06/24 11:21:01;;;;;;;0.50;0.30;;;;;;;34.26;31.36;95084.75;5133656;27;20525;-60
2022/06/24 11:23:32;;;;;;;0.67;0.67;;;;;;;34.47;30.81;95081.53;5133582;27;20451;-60
2022/06/24 11:26:04;;;;;;;0.50;0.47;;;;;;;34.28;31.64;95083.13;5133464;27;20580;-60
2022/06/24 11:28:34;;;;;;;0.40;0.30;;;;;;;35.25;30.33;95087.91;5133445;27;20490;-60
2022/06/24 11:31:17;;;;;;;0.50;0.30;;;;;;;34.29;31.32;95081.94;5133724;27;20455;-60
2022/06/24 11:33:46;;;;;;;0.40;0.30;;;;;;;34.57;31.58;95085.28;5133618;27;20431;-60
2022/06/24 11:36:15;;;;;;;0.50;0.30;;;;;;;33.45;33.67;95078.91;5133243;27;20420;-59
2022/06/24 11:38:51;;;;;;;0.40;0.40;;;;;;;32.61;34.05;95083.94;5133178;27;20455;-60
2022/06/24 11:41:26;;;;;;;0.50;0.40;;;;;;;33.01;34.41;95082.06;5132879;27;20491;-60
2022/06/24 11:44:15;;;;;;;0.60;0.40;;;;;;;33.06;34.06;95043.97;5133345;27;20566;-60
2022/06/24 11:46:50;;;;;;;0.97;0.43;;;;;;;33.13;35.07;95013.59;5133008;27;20472;-60
2022/06/24 11:49:21;;;;;;;0.70;0.40;;;;;;;33.66;36.51;94952.09;5133105;27;20837;-60
2022/06/24 11:51:50;;;;;;;0.40;0.30;;;;;;;34.83;34.59;95084.25;5133151;27;20431;-61